Date,TemperatureHighF,TemperatureAvgF,TemperatureLowF,DewpointHighF,DewpointAvgF,DewpointLowF,HumidityHigh,HumidityAvg,HumidityLow,PressureMaxIn,PressureMinIn,WindSpeedMaxMPH,WindSpeedAvgMPH,GustSpeedMaxMPH,PrecipitationSumIn
2013-1-1,40.0,39.6,39.0,31.0,29.9,29.0,70,69,66,29.91,29.88,3,1,3,0.00
2013-1-2,39.0,34.5,27.0,30.0,25.4,15.0,72,69,60,30.11,29.88,7,2,7,0.00
2013-1-3,24.0,23.5,23.0,20.0,19.5,19.0,86,84,84,30.11,30.09,0,0,0,0.00
2013-1-4,27.0,23.2,21.0,27.0,22.6,20.0,100,97,88,30.11,30.09,3,0,4,0.00
2013-1-7,28.0,28.0,28.0,26.0,25.9,25.0,93,92,89,30.35,30.35,0,0,0,0.00
2013-1-8,54.0,38.2,26.0,43.0,30.2,26.0,100,77,44,30.38,30.29,12,3,12,0.00
2013-1-9,49.0,49.0,49.0,47.0,47.0,46.0,94,94,94,30.26,30.26,3,2,3,0.00
2013-1-10,52.0,44.5,35.0,46.0,29.4,22.0,91,56,46,30.47,30.26,9,2,14,0.00
2013-1-11,55.0,44.1,30.0,55.0,43.1,30.0,100,97,79,30.41,30.00,5,2,7,0.00
2013-1-12,59.0,48.5,42.0,59.0,48.4,42.0,100,99,89,30.06,30.00,5,1,6,0.00
2013-1-13,58.0,49.5,41.0,58.0,49.5,41.0,100,100,100,30.06,29.94,5,1,5,0.00
2013-1-14,63.0,57.2,46.0,63.0,56.4,43.0,100,97,82,30.14,29.88,13,5,13,0.00
2013-1-15,45.0,41.4,38.0,45.0,41.4,38.0,100,100,98,30.20,30.06,10,4,10,0.00
2013-1-16,44.0,40.4,37.0,44.0,40.4,37.0,100,100,100,30.06,29.79,10,3,13,0.00
2013-1-17,43.0,41.2,37.0,43.0,41.2,37.0,100,100,100,30.06,29.88,7,1,7,0.00
2013-1-21,35.0,33.0,31.0,34.0,31.2,26.0,100,93,88,29.79,29.73,14,10,19,0.00
2013-1-22,30.0,23.4,18.0,26.0,8.0,0.0,86,52,42,30.20,29.79,13,5,13,0.00
2013-1-23,24.0,18.7,15.0,5.0,2.0,0.0,51,48,42,30.23,30.14,13,5,13,0.00
2013-1-24,13.0,13.0,13.0,-2.0,-2.0,-2.0,51,51,51,30.38,30.38,0,0,0,0.00
2013-1-29,69.0,60.8,47.0,52.0,48.5,43.0,100,66,49,30.06,29.97,5,2,5,0.00
2013-1-31,49.0,43.9,35.0,34.0,23.6,15.0,58,44,37,29.85,29.41,12,5,13,0.00
2013-2-1,35.0,29.5,21.0,30.0,14.9,4.0,100,56,44,30.26,29.73,13,3,14,0.00
2013-2-2,31.0,24.3,15.0,28.0,11.9,3.0,100,60,44,30.29,29.94,11,3,13,0.00
2013-2-3,36.0,29.8,25.0,30.0,25.4,17.0,100,85,58,29.94,29.73,5,2,6,0.00
2013-2-4,36.0,30.5,25.0,31.0,17.6,12.0,100,60,52,30.03,29.82,13,4,13,0.00
2013-2-5,49.0,41.5,35.0,32.0,27.5,24.0,72,57,47,29.85,29.76,8,2,8,0.00
2013-2-6,46.0,37.7,24.0,40.0,25.8,16.0,100,64,51,30.26,30.06,11,4,13,0.00
2013-2-7,29.0,24.6,23.0,28.0,21.1,17.0,96,87,75,30.35,30.26,2,0,3,0.00
2013-2-11,58.0,58.0,58.0,58.0,58.0,58.0,100,100,100,29.64,29.64,15,15,15,0.00
2013-2-14,44.0,42.7,41.0,42.0,38.7,36.0,100,86,75,29.91,29.88,5,4,7,0.00
2013-2-15,42.0,39.8,39.0,34.0,31.8,30.0,75,73,70,29.88,29.85,5,1,7,0.00
2013-2-16,42.0,37.5,34.0,38.0,36.3,34.0,100,96,75,29.91,29.70,9,5,11,0.00
2013-2-21,33.0,33.0,33.0,17.0,17.0,17.0,52,52,52,29.79,29.79,9,9,20,0.00
2013-3-4,36.0,35.2,33.0,20.0,19.2,16.0,52,52,51,31.00,31.00,7,3,7,0.00
2013-3-5,48.0,36.1,27.0,29.0,21.0,13.0,70,55,38,31.00,31.00,9,3,10,0.00
2013-3-6,40.0,39.1,38.0,40.0,37.8,29.0,100,96,70,31.00,31.00,13,9,20,0.00
2013-3-7,43.0,38.9,37.0,29.0,28.1,25.0,70,66,52,31.00,31.00,16,9,16,0.00
2013-3-8,44.0,36.8,35.0,28.0,22.5,21.0,58,55,52,31.00,30.03,11,7,16,0.00
2013-3-10,44.0,39.6,37.0,37.0,35.2,32.0,96,85,63,30.23,30.20,3,1,5,0.00
2013-3-11,62.0,47.2,36.0,49.0,42.5,36.0,100,87,60,30.20,29.97,7,2,8,0.00
2013-3-12,61.0,55.9,46.0,61.0,54.1,37.0,100,94,72,29.82,29.61,11,5,11,0.00
2013-3-13,51.0,38.6,0.0,37.0,26.8,-16.0,74,63,42,29.91,29.79,9,4,10,0.00
2013-3-14,44.0,38.2,32.0,23.0,19.4,15.0,54,47,40,30.00,29.88,15,6,15,0.00
2013-3-15,51.0,41.2,28.0,32.0,21.8,15.0,74,47,37,30.00,29.70,13,4,13,0.00
2013-3-16,57.0,43.9,33.0,46.0,36.2,28.0,100,77,46,29.79,29.55,7,2,9,0.00
2013-3-17,40.0,37.5,36.0,40.0,35.2,29.0,100,92,68,30.06,29.79,11,5,13,0.00
2013-3-18,49.0,41.9,34.0,49.0,41.8,31.0,100,100,88,30.23,29.76,8,3,10,0.00
2013-3-19,56.0,46.7,38.0,48.0,40.9,33.0,100,83,47,29.79,29.61,11,3,11,0.00
2013-3-20,51.0,38.9,27.0,39.0,23.4,17.0,93,57,37,29.91,29.67,11,4,11,0.00
2013-3-21,42.0,35.1,30.0,34.0,22.1,11.0,100,60,44,29.76,29.61,12,6,13,0.00
2013-3-22,45.0,33.8,27.0,23.0,16.1,10.0,68,48,38,29.91,29.76,13,4,19,0.00
2013-3-23,50.0,36.9,25.0,28.0,23.3,18.0,89,60,37,29.91,29.79,11,3,11,0.00
2013-3-24,42.0,34.8,24.0,34.0,24.5,17.0,100,68,51,29.91,29.55,9,2,9,0.00
2013-3-25,36.0,34.7,33.0,36.0,34.5,29.0,100,99,86,29.58,29.35,9,4,9,0.00
2013-3-26,49.0,42.6,34.0,44.0,35.4,27.0,100,78,49,29.85,29.70,10,5,11,0.00
2013-3-27,50.0,42.1,36.0,32.0,27.9,22.0,75,58,42,30.00,29.85,11,4,11,0.00
2013-3-28,49.0,40.4,35.0,31.0,27.2,22.0,74,60,47,30.09,29.97,10,4,11,0.00
2013-3-29,52.0,41.0,30.0,36.0,28.1,25.0,94,62,40,30.11,30.06,9,3,10,0.00
2013-4-1,58.0,48.6,42.0,48.0,40.4,26.0,100,78,46,29.85,29.58,14,6,14,0.00
2013-4-2,44.0,40.6,39.0,26.0,22.8,21.0,51,49,49,29.88,29.85,3,2,5,0.00
2013-4-3,51.0,40.0,24.0,31.0,23.1,13.0,72,53,35,30.23,30.09,12,7,13,0.00
2013-4-4,47.0,37.4,24.0,27.0,18.8,9.0,70,48,38,30.32,30.03,7,2,7,0.00
2013-4-5,56.0,41.5,36.0,52.0,39.4,27.0,100,93,61,30.03,29.73,9,5,9,0.00
2013-4-6,54.0,45.1,35.0,27.0,24.3,19.0,63,44,35,30.23,30.17,11,3,11,0.00
2013-4-7,64.0,40.1,32.0,43.0,32.7,26.0,94,79,40,30.23,29.94,11,3,14,0.00
2013-4-8,76.0,63.3,54.0,49.0,45.5,39.0,70,55,35,30.00,29.91,10,4,10,0.00
2013-4-9,81.0,71.1,65.0,51.0,50.4,48.0,61,50,33,30.00,29.88,10,6,11,0.00
2013-4-10,77.0,75.1,74.0,49.0,48.1,47.0,40,39,35,29.73,29.73,8,5,8,0.00
2013-4-11,75.0,60.9,51.0,53.0,51.1,48.0,100,72,40,29.79,29.70,9,5,11,0.00
2013-4-12,69.0,61.3,51.0,69.0,61.3,51.0,100,100,100,29.73,29.49,13,3,18,0.00
2013-4-13,54.0,47.7,46.0,54.0,47.3,41.0,100,99,75,29.85,29.55,11,4,11,0.00
2013-4-14,49.0,40.6,39.0,43.0,39.9,39.0,100,97,79,30.06,29.85,10,2,10,0.00
2013-4-15,52.0,50.9,39.0,44.0,42.6,39.0,100,72,70,30.17,30.03,10,4,11,0.00
2013-4-30,58.0,56.3,56.0,58.0,56.3,56.0,100,100,100,30.14,30.03,8,5,9,0.00
2013-5-1,56.0,55.5,49.0,56.0,55.5,49.0,100,100,100,30.32,30.14,9,4,11,0.00
2013-5-2,50.0,49.8,49.0,50.0,49.8,49.0,100,100,100,30.32,30.23,8,3,8,0.00
2013-5-3,50.0,47.9,45.0,50.0,46.8,35.0,100,97,68,30.29,30.20,11,4,11,0.00
2013-5-4,49.0,47.0,44.0,48.0,45.0,33.0,100,93,58,30.23,30.11,9,4,11,0.00
2013-5-5,46.0,44.2,44.0,44.0,43.4,39.0,100,97,82,30.14,30.09,9,4,10,0.00
2013-5-6,44.0,44.0,44.0,44.0,44.0,44.0,100,100,100,30.09,29.97,9,4,9,0.00
2013-5-7,63.0,55.2,44.0,60.0,55.1,44.0,100,100,89,30.00,29.91,7,4,7,0.00
2013-11-13,42.0,42.0,42.0,7.0,7.0,7.0,23,23,23,30.32,30.29,10,7,10,0.00
2013-11-14,55.0,54.7,53.0,15.0,14.8,14.0,21,20,20,30.23,30.20,7,5,7,0.00
2013-11-16,55.0,50.2,47.0,47.0,36.4,-99.9,74,69,72,30.20,30.17,3,0,3,0.00
2013-11-17,66.0,53.1,47.0,57.0,45.7,38.0,83,76,64,30.17,29.76,4,0,5,0.00
2013-11-18,67.0,63.4,57.0,59.0,55.4,49.0,78,75,73,29.76,29.61,8,4,9,0.00